Terminal Aerodrome Forecast
Issued by NWS

Home | Current Version | Previous Version | Text Only | Print | Product List | Glossary Off
Versions: 1 2 3 4 5 6 7 8 9 10 11 12

820
FTUS44 KTSA 092320
TAFFYV
TAF
KFYV 092320Z 1000/1024 32015G24KT P6SM SCT250
     FM100200 32006KT P6SM SCT250
     FM100600 VRB03KT P6SM BKN120
     FM101500 18007KT P6SM SCT250=

USA.gov is the U.S. government's official web portal to all federal, state and local government web resources and services.